sensor_id;sensor_type;location;lat;lon;timestamp;P1;durP1;ratioP1;P2;durP2;ratioP2
70981;SDS011;58640;51.320;9.456;2023-07-20T00:00:24;1.65;;;1.48;;
70981;SDS011;58640;51.320;9.456;2023-07-20T00:02:50;2.17;;;1.85;;
70981;SDS011;58640;51.320;9.456;2023-07-20T00:05:16;5.13;;;1.55;;
70981;SDS011;58640;51.320;9.456;2023-07-20T00:07:43;3.47;;;1.60;;
70981;SDS011;58640;51.320;9.456;2023-07-20T00:10:09;1.83;;;1.60;;
70981;SDS011;58640;51.320;9.456;2023-07-20T00:12:34;2.70;;;1.98;;
70981;SDS011;58640;51.320;9.456;2023-07-20T00:15:00;2.53;;;1.73;;
70981;SDS011;58640;51.320;9.456;2023-07-20T00:17:25;1.75;;;1.63;;
70981;SDS011;58640;51.320;9.456;2023-07-20T00:19:51;2.05;;;1.63;;
70981;SDS011;58640;51.320;9.456;2023-07-20T00:22:16;3.60;;;2.20;;
70981;SDS011;58640;51.320;9.456;2023-07-20T00:24:42;2.33;;;1.75;;
70981;SDS011;58640;51.320;9.456;2023-07-20T00:27:07;3.03;;;1.58;;
70981;SDS011;58640;51.320;9.456;2023-07-20T00:29:32;3.17;;;1.80;;
70981;SDS011;58640;51.320;9.456;2023-07-20T00:31:58;3.53;;;1.65;;
70981;SDS011;58640;51.320;9.456;2023-07-20T00:34:23;4.95;;;2.20;;
70981;SDS011;58640;51.320;9.456;2023-07-20T00:36:49;2.20;;;1.90;;
70981;SDS011;58640;51.320;9.456;2023-07-20T00:39:14;3.53;;;1.80;;
70981;SDS011;58640;51.320;9.456;2023-07-20T00:41:39;3.75;;;1.98;;
70981;SDS011;58640;51.320;9.456;2023-07-20T00:44:05;4.88;;;2.15;;
70981;SDS011;58640;51.320;9.456;2023-07-20T00:46:30;1.77;;;1.50;;
70981;SDS011;58640;51.320;9.456;2023-07-20T00:48:57;2.63;;;1.92;;
70981;SDS011;58640;51.320;9.456;2023-07-20T00:51:24;3.60;;;2.30;;
70981;SDS011;58640;51.320;9.456;2023-07-20T00:53:50;2.67;;;2.47;;
70981;SDS011;58640;51.320;9.456;2023-07-20T00:56:16;4.25;;;1.83;;
70981;SDS011;58640;51.320;9.456;2023-07-20T00:58:41;3.60;;;2.22;;
70981;SDS011;58640;51.320;9.456;2023-07-20T01:01:07;4.18;;;2.03;;
70981;SDS011;58640;51.320;9.456;2023-07-20T01:03:32;1.77;;;1.67;;
70981;SDS011;58640;51.320;9.456;2023-07-20T01:08:40;2.20;;;1.77;;
70981;SDS011;58640;51.320;9.456;2023-07-20T01:14:07;4.35;;;2.20;;
70981;SDS011;58640;51.320;9.456;2023-07-20T01:16:33;2.78;;;1.80;;
70981;SDS011;58640;51.320;9.456;2023-07-20T01:18:59;3.58;;;2.38;;
70981;SDS011;58640;51.320;9.456;2023-07-20T01:21:26;5.13;;;2.03;;
70981;SDS011;58640;51.320;9.456;2023-07-20T01:32:57;3.00;;;1.90;;
70981;SDS011;58640;51.320;9.456;2023-07-20T01:35:24;3.33;;;2.03;;
70981;SDS011;58640;51.320;9.456;2023-07-20T01:37:54;5.45;;;2.20;;
70981;SDS011;58640;51.320;9.456;2023-07-20T01:40:20;4.18;;;1.95;;
70981;SDS011;58640;51.320;9.456;2023-07-20T01:42:47;3.53;;;2.35;;
70981;SDS011;58640;51.320;9.456;2023-07-20T01:45:13;3.92;;;2.05;;
70981;SDS011;58640;51.320;9.456;2023-07-20T01:47:38;5.15;;;2.10;;
70981;SDS011;58640;51.320;9.456;2023-07-20T01:50:04;4.60;;;2.25;;
70981;SDS011;58640;51.320;9.456;2023-07-20T01:52:30;3.55;;;2.60;;
70981;SDS011;58640;51.320;9.456;2023-07-20T01:54:55;3.80;;;2.35;;
70981;SDS011;58640;51.320;9.456;2023-07-20T01:57:21;4.75;;;2.47;;
70981;SDS011;58640;51.320;9.456;2023-07-20T01:59:46;3.70;;;2.50;;
70981;SDS011;58640;51.320;9.456;2023-07-20T02:02:11;4.88;;;2.55;;
70981;SDS011;58640;51.320;9.456;2023-07-20T02:04:37;4.13;;;2.35;;
70981;SDS011;58640;51.320;9.456;2023-07-20T02:07:02;2.78;;;2.15;;
70981;SDS011;58640;51.320;9.456;2023-07-20T02:09:28;3.03;;;2.67;;
70981;SDS011;58640;51.320;9.456;2023-07-20T02:11:53;2.75;;;2.17;;
70981;SDS011;58640;51.320;9.456;2023-07-20T02:14:18;2.10;;;1.70;;
70981;SDS011;58640;51.320;9.456;2023-07-20T02:16:44;2.22;;;1.70;;
70981;SDS011;58640;51.320;9.456;2023-07-20T02:19:09;5.10;;;1.85;;
70981;SDS011;58640;51.320;9.456;2023-07-20T02:21:35;4.55;;;1.88;;
70981;SDS011;58640;51.320;9.456;2023-07-20T02:24:01;4.15;;;1.90;;
70981;SDS011;58640;51.320;9.456;2023-07-20T02:26:26;1.83;;;1.63;;
70981;SDS011;58640;51.320;9.456;2023-07-20T02:28:51;2.65;;;2.10;;
70981;SDS011;58640;51.320;9.456;2023-07-20T02:31:17;5.15;;;1.88;;
70981;SDS011;58640;51.320;9.456;2023-07-20T02:33:42;3.08;;;1.92;;
70981;SDS011;58640;51.320;9.456;2023-07-20T02:36:08;5.07;;;2.17;;
70981;SDS011;58640;51.320;9.456;2023-07-20T02:38:33;3.42;;;2.08;;
70981;SDS011;58640;51.320;9.456;2023-07-20T02:40:58;2.38;;;2.13;;
70981;SDS011;58640;51.320;9.456;2023-07-20T02:43:24;6.68;;;2.17;;
70981;SDS011;58640;51.320;9.456;2023-07-20T02:45:50;2.78;;;1.80;;
70981;SDS011;58640;51.320;9.456;2023-07-20T02:48:15;4.93;;;2.28;;
70981;SDS011;58640;51.320;9.456;2023-07-20T02:50:41;2.50;;;1.73;;
70981;SDS011;58640;51.320;9.456;2023-07-20T02:53:06;2.63;;;1.63;;
70981;SDS011;58640;51.320;9.456;2023-07-20T02:55:31;4.07;;;2.03;;
70981;SDS011;58640;51.320;9.456;2023-07-20T02:57:57;3.45;;;2.35;;
70981;SDS011;58640;51.320;9.456;2023-07-20T03:00:22;4.05;;;2.15;;
70981;SDS011;58640;51.320;9.456;2023-07-20T03:02:48;4.15;;;2.10;;
70981;SDS011;58640;51.320;9.456;2023-07-20T03:05:14;3.25;;;1.90;;
70981;SDS011;58640;51.320;9.456;2023-07-20T03:07:41;1.38;;;1.27;;
70981;SDS011;58640;51.320;9.456;2023-07-20T03:10:08;2.30;;;1.45;;
70981;SDS011;58640;51.320;9.456;2023-07-20T03:12:34;1.95;;;1.85;;
70981;SDS011;58640;51.320;9.456;2023-07-20T03:15:00;6.28;;;2.35;;
70981;SDS011;58640;51.320;9.456;2023-07-20T03:17:26;2.60;;;2.10;;
70981;SDS011;58640;51.320;9.456;2023-07-20T03:19:51;2.75;;;2.15;;
70981;SDS011;58640;51.320;9.456;2023-07-20T03:22:17;3.90;;;2.33;;
70981;SDS011;58640;51.320;9.456;2023-07-20T03:24:43;3.67;;;2.13;;
70981;SDS011;58640;51.320;9.456;2023-07-20T03:27:08;6.13;;;2.90;;
70981;SDS011;58640;51.320;9.456;2023-07-20T03:29:33;2.50;;;1.90;;
70981;SDS011;58640;51.320;9.456;2023-07-20T03:31:59;3.95;;;2.33;;
70981;SDS011;58640;51.320;9.456;2023-07-20T03:34:24;4.07;;;1.90;;
70981;SDS011;58640;51.320;9.456;2023-07-20T03:36:50;5.25;;;2.95;;
70981;SDS011;58640;51.320;9.456;2023-07-20T03:39:15;3.53;;;2.13;;
70981;SDS011;58640;51.320;9.456;2023-07-20T03:41:41;2.70;;;2.47;;
70981;SDS011;58640;51.320;9.456;2023-07-20T03:44:06;3.38;;;2.33;;
70981;SDS011;58640;51.320;9.456;2023-07-20T03:46:31;3.80;;;2.70;;
70981;SDS011;58640;51.320;9.456;2023-07-20T03:48:59;3.72;;;2.38;;
70981;SDS011;58640;51.320;9.456;2023-07-20T03:51:24;6.90;;;2.40;;
70981;SDS011;58640;51.320;9.456;2023-07-20T03:53:49;5.47;;;2.30;;
70981;SDS011;58640;51.320;9.456;2023-07-20T03:56:15;3.17;;;2.20;;
70981;SDS011;58640;51.320;9.456;2023-07-20T03:58:40;2.95;;;2.30;;
70981;SDS011;58640;51.320;9.456;2023-07-20T04:01:06;4.03;;;2.50;;
70981;SDS011;58640;51.320;9.456;2023-07-20T04:03:32;4.07;;;2.50;;
70981;SDS011;58640;51.320;9.456;2023-07-20T04:05:57;4.93;;;2.20;;
70981;SDS011;58640;51.320;9.456;2023-07-20T04:08:23;3.03;;;2.35;;
70981;SDS011;58640;51.320;9.456;2023-07-20T04:10:49;2.85;;;2.30;;
70981;SDS011;58640;51.320;9.456;2023-07-20T04:13:15;5.35;;;2.80;;
70981;SDS011;58640;51.320;9.456;2023-07-20T04:15:41;3.10;;;2.42;;
70981;SDS011;58640;51.320;9.456;2023-07-20T04:18:07;8.90;;;2.65;;
70981;SDS011;58640;51.320;9.456;2023-07-20T04:20:32;2.60;;;2.22;;
70981;SDS011;58640;51.320;9.456;2023-07-20T04:22:58;3.65;;;2.95;;
70981;SDS011;58640;51.320;9.456;2023-07-20T04:25:23;3.17;;;2.50;;
70981;SDS011;58640;51.320;9.456;2023-07-20T04:27:48;4.90;;;2.42;;
70981;SDS011;58640;51.320;9.456;2023-07-20T04:30:16;3.85;;;2.40;;
70981;SDS011;58640;51.320;9.456;2023-07-20T04:32:45;3.88;;;2.58;;
70981;SDS011;58640;51.320;9.456;2023-07-20T04:35:16;4.72;;;2.50;;
70981;SDS011;58640;51.320;9.456;2023-07-20T04:37:43;3.08;;;2.03;;
70981;SDS011;58640;51.320;9.456;2023-07-20T04:40:11;3.67;;;2.28;;
70981;SDS011;58640;51.320;9.456;2023-07-20T04:42:40;6.13;;;2.22;;
70981;SDS011;58640;51.320;9.456;2023-07-20T04:45:06;5.28;;;2.72;;
70981;SDS011;58640;51.320;9.456;2023-07-20T04:47:32;7.35;;;2.65;;
70981;SDS011;58640;51.320;9.456;2023-07-20T04:49:57;4.78;;;2.28;;
70981;SDS011;58640;51.320;9.456;2023-07-20T04:52:22;4.63;;;2.10;;
70981;SDS011;58640;51.320;9.456;2023-07-20T04:54:48;3.75;;;2.10;;
70981;SDS011;58640;51.320;9.456;2023-07-20T04:57:13;3.63;;;2.30;;
70981;SDS011;58640;51.320;9.456;2023-07-20T04:59:39;3.67;;;2.40;;
70981;SDS011;58640;51.320;9.456;2023-07-20T05:02:04;5.35;;;2.90;;
70981;SDS011;58640;51.320;9.456;2023-07-20T05:04:29;5.00;;;2.45;;
70981;SDS011;58640;51.320;9.456;2023-07-20T05:06:55;3.50;;;2.47;;
70981;SDS011;58640;51.320;9.456;2023-07-20T05:09:20;4.05;;;2.47;;
70981;SDS011;58640;51.320;9.456;2023-07-20T05:11:45;5.70;;;2.95;;
70981;SDS011;58640;51.320;9.456;2023-07-20T05:14:12;2.80;;;2.33;;
70981;SDS011;58640;51.320;9.456;2023-07-20T05:16:38;7.10;;;2.63;;
70981;SDS011;58640;51.320;9.456;2023-07-20T05:19:03;2.97;;;2.67;;
70981;SDS011;58640;51.320;9.456;2023-07-20T05:21:28;7.47;;;2.88;;
70981;SDS011;58640;51.320;9.456;2023-07-20T05:23:54;4.88;;;3.05;;
70981;SDS011;58640;51.320;9.456;2023-07-20T05:26:19;4.47;;;2.80;;
70981;SDS011;58640;51.320;9.456;2023-07-20T05:28:45;5.60;;;2.65;;
70981;SDS011;58640;51.320;9.456;2023-07-20T05:31:10;7.40;;;3.15;;
70981;SDS011;58640;51.320;9.456;2023-07-20T05:33:35;6.00;;;3.13;;
70981;SDS011;58640;51.320;9.456;2023-07-20T05:36:01;5.38;;;2.45;;
70981;SDS011;58640;51.320;9.456;2023-07-20T05:38:26;2.70;;;2.50;;
70981;SDS011;58640;51.320;9.456;2023-07-20T05:40:52;4.40;;;2.50;;
70981;SDS011;58640;51.320;9.456;2023-07-20T05:43:17;5.20;;;2.53;;
70981;SDS011;58640;51.320;9.456;2023-07-20T05:45:43;3.03;;;2.55;;
70981;SDS011;58640;51.320;9.456;2023-07-20T05:48:10;4.70;;;2.88;;
70981;SDS011;58640;51.320;9.456;2023-07-20T05:50:36;5.57;;;2.88;;
70981;SDS011;58640;51.320;9.456;2023-07-20T05:53:02;3.63;;;2.72;;
70981;SDS011;58640;51.320;9.456;2023-07-20T05:55:28;6.35;;;2.70;;
70981;SDS011;58640;51.320;9.456;2023-07-20T05:57:53;5.20;;;2.90;;
70981;SDS011;58640;51.320;9.456;2023-07-20T06:00:20;5.30;;;3.00;;
70981;SDS011;58640;51.320;9.456;2023-07-20T06:02:51;5.03;;;2.70;;
70981;SDS011;58640;51.320;9.456;2023-07-20T06:05:18;4.25;;;3.10;;
70981;SDS011;58640;51.320;9.456;2023-07-20T06:07:44;5.40;;;2.90;;
70981;SDS011;58640;51.320;9.456;2023-07-20T06:10:09;3.60;;;2.65;;
70981;SDS011;58640;51.320;9.456;2023-07-20T06:12:34;4.00;;;3.63;;
70981;SDS011;58640;51.320;9.456;2023-07-20T06:15:03;6.20;;;2.92;;
70981;SDS011;58640;51.320;9.456;2023-07-20T06:17:30;4.15;;;3.45;;
70981;SDS011;58640;51.320;9.456;2023-07-20T06:19:55;7.28;;;4.43;;
70981;SDS011;58640;51.320;9.456;2023-07-20T06:22:20;3.63;;;3.33;;
70981;SDS011;58640;51.320;9.456;2023-07-20T06:24:46;4.50;;;2.95;;
70981;SDS011;58640;51.320;9.456;2023-07-20T06:27:11;5.03;;;3.25;;
70981;SDS011;58640;51.320;9.456;2023-07-20T06:29:37;3.75;;;3.08;;
70981;SDS011;58640;51.320;9.456;2023-07-20T06:32:03;7.78;;;3.35;;
70981;SDS011;58640;51.320;9.456;2023-07-20T06:34:28;4.80;;;3.15;;
70981;SDS011;58640;51.320;9.456;2023-07-20T06:36:54;2.78;;;2.38;;
70981;SDS011;58640;51.320;9.456;2023-07-20T06:39:20;5.57;;;3.33;;
70981;SDS011;58640;51.320;9.456;2023-07-20T06:41:46;4.50;;;2.70;;
70981;SDS011;58640;51.320;9.456;2023-07-20T06:44:12;3.63;;;3.20;;
70981;SDS011;58640;51.320;9.456;2023-07-20T06:46:37;5.80;;;3.10;;
70981;SDS011;58640;51.320;9.456;2023-07-20T06:49:05;8.13;;;3.53;;
70981;SDS011;58640;51.320;9.456;2023-07-20T06:51:32;7.95;;;3.95;;
70981;SDS011;58640;51.320;9.456;2023-07-20T06:53:58;8.52;;;4.20;;
70981;SDS011;58640;51.320;9.456;2023-07-20T06:56:23;5.30;;;3.50;;
70981;SDS011;58640;51.320;9.456;2023-07-20T06:58:48;5.20;;;3.63;;
70981;SDS011;58640;51.320;9.456;2023-07-20T07:01:14;4.22;;;3.63;;
70981;SDS011;58640;51.320;9.456;2023-07-20T07:03:40;7.10;;;3.50;;
70981;SDS011;58640;51.320;9.456;2023-07-20T07:06:05;5.20;;;3.63;;
70981;SDS011;58640;51.320;9.456;2023-07-20T07:08:30;6.85;;;3.60;;
70981;SDS011;58640;51.320;9.456;2023-07-20T07:10:56;3.58;;;3.25;;
70981;SDS011;58640;51.320;9.456;2023-07-20T07:13:21;3.30;;;3.00;;
70981;SDS011;58640;51.320;9.456;2023-07-20T07:15:47;3.85;;;3.38;;
70981;SDS011;58640;51.320;9.456;2023-07-20T07:18:12;4.32;;;2.90;;
70981;SDS011;58640;51.320;9.456;2023-07-20T07:20:37;3.42;;;2.80;;
70981;SDS011;58640;51.320;9.456;2023-07-20T07:23:03;4.35;;;3.33;;
70981;SDS011;58640;51.320;9.456;2023-07-20T07:25:28;4.43;;;3.33;;
70981;SDS011;58640;51.320;9.456;2023-07-20T07:27:54;6.30;;;3.38;;
70981;SDS011;58640;51.320;9.456;2023-07-20T07:30:20;2.85;;;2.40;;
70981;SDS011;58640;51.320;9.456;2023-07-20T07:32:47;3.30;;;3.00;;
70981;SDS011;58640;51.320;9.456;2023-07-20T07:35:13;5.30;;;3.13;;
70981;SDS011;58640;51.320;9.456;2023-07-20T07:37:38;3.15;;;2.85;;
70981;SDS011;58640;51.320;9.456;2023-07-20T07:40:04;3.42;;;2.72;;
70981;SDS011;58640;51.320;9.456;2023-07-20T07:42:31;4.95;;;2.40;;
70981;SDS011;58640;51.320;9.456;2023-07-20T07:44:56;5.57;;;2.33;;
70981;SDS011;58640;51.320;9.456;2023-07-20T07:47:21;2.50;;;2.20;;
70981;SDS011;58640;51.320;9.456;2023-07-20T07:49:47;2.80;;;2.15;;
70981;SDS011;58640;51.320;9.456;2023-07-20T07:52:12;3.53;;;2.45;;
70981;SDS011;58640;51.320;9.456;2023-07-20T07:54:39;2.50;;;2.17;;
70981;SDS011;58640;51.320;9.456;2023-07-20T07:57:04;4.22;;;2.25;;
70981;SDS011;58640;51.320;9.456;2023-07-20T07:59:30;4.25;;;2.50;;
70981;SDS011;58640;51.320;9.456;2023-07-20T08:02:00;2.42;;;1.80;;
70981;SDS011;58640;51.320;9.456;2023-07-20T08:04:25;3.00;;;2.03;;
70981;SDS011;58640;51.320;9.456;2023-07-20T08:06:51;3.17;;;1.70;;
70981;SDS011;58640;51.320;9.456;2023-07-20T08:09:16;2.55;;;1.90;;
70981;SDS011;58640;51.320;9.456;2023-07-20T08:11:41;2.40;;;1.65;;
70981;SDS011;58640;51.320;9.456;2023-07-20T08:14:07;2.50;;;1.60;;
70981;SDS011;58640;51.320;9.456;2023-07-20T08:16:32;1.67;;;1.58;;
70981;SDS011;58640;51.320;9.456;2023-07-20T08:18:58;2.80;;;1.42;;
70981;SDS011;58640;51.320;9.456;2023-07-20T08:21:23;2.63;;;1.63;;
70981;SDS011;58640;51.320;9.456;2023-07-20T08:23:48;2.17;;;1.30;;
70981;SDS011;58640;51.320;9.456;2023-07-20T08:26:14;1.50;;;1.30;;
70981;SDS011;58640;51.320;9.456;2023-07-20T08:28:39;2.38;;;1.65;;
70981;SDS011;58640;51.320;9.456;2023-07-20T08:31:05;3.25;;;1.45;;
70981;SDS011;58640;51.320;9.456;2023-07-20T08:33:32;2.20;;;2.00;;
70981;SDS011;58640;51.320;9.456;2023-07-20T08:35:58;4.20;;;1.70;;
70981;SDS011;58640;51.320;9.456;2023-07-20T08:38:25;1.60;;;1.50;;
70981;SDS011;58640;51.320;9.456;2023-07-20T08:40:51;3.13;;;1.58;;
70981;SDS011;58640;51.320;9.456;2023-07-20T08:43:18;1.60;;;1.50;;
70981;SDS011;58640;51.320;9.456;2023-07-20T08:45:44;2.45;;;1.52;;
70981;SDS011;58640;51.320;9.456;2023-07-20T08:48:10;2.47;;;1.52;;
70981;SDS011;58640;51.320;9.456;2023-07-20T08:50:37;3.50;;;1.70;;
70981;SDS011;58640;51.320;9.456;2023-07-20T08:53:03;4.13;;;1.65;;
70981;SDS011;58640;51.320;9.456;2023-07-20T08:55:28;4.03;;;2.03;;
70981;SDS011;58640;51.320;9.456;2023-07-20T08:57:55;2.55;;;2.10;;
70981;SDS011;58640;51.320;9.456;2023-07-20T09:00:22;2.90;;;2.00;;
70981;SDS011;58640;51.320;9.456;2023-07-20T09:02:49;2.20;;;2.00;;
70981;SDS011;58640;51.320;9.456;2023-07-20T09:05:21;3.33;;;2.30;;
70981;SDS011;58640;51.320;9.456;2023-07-20T09:07:49;2.25;;;1.60;;
70981;SDS011;58640;51.320;9.456;2023-07-20T09:10:14;2.58;;;1.88;;
70981;SDS011;58640;51.320;9.456;2023-07-20T09:12:40;2.00;;;1.90;;
70981;SDS011;58640;51.320;9.456;2023-07-20T09:15:08;3.30;;;2.25;;
70981;SDS011;58640;51.320;9.456;2023-07-20T09:17:35;2.10;;;1.95;;
70981;SDS011;58640;51.320;9.456;2023-07-20T09:20:02;2.78;;;1.85;;
70981;SDS011;58640;51.320;9.456;2023-07-20T09:22:32;4.50;;;1.70;;
70981;SDS011;58640;51.320;9.456;2023-07-20T09:24:58;2.20;;;2.00;;
70981;SDS011;58640;51.320;9.456;2023-07-20T09:27:34;2.45;;;2.22;;
70981;SDS011;58640;51.320;9.456;2023-07-20T09:30:01;4.10;;;2.50;;
70981;SDS011;58640;51.320;9.456;2023-07-20T09:32:26;1.98;;;1.88;;
70981;SDS011;58640;51.320;9.456;2023-07-20T09:34:52;4.43;;;2.60;;
70981;SDS011;58640;51.320;9.456;2023-07-20T09:37:21;2.33;;;2.13;;
70981;SDS011;58640;51.320;9.456;2023-07-20T09:39:47;4.13;;;2.58;;
70981;SDS011;58640;51.320;9.456;2023-07-20T09:42:14;2.20;;;2.00;;
70981;SDS011;58640;51.320;9.456;2023-07-20T09:44:39;2.72;;;2.08;;
70981;SDS011;58640;51.320;9.456;2023-07-20T09:47:08;1.88;;;1.60;;
70981;SDS011;58640;51.320;9.456;2023-07-20T09:49:37;2.38;;;1.50;;
70981;SDS011;58640;51.320;9.456;2023-07-20T09:52:05;1.70;;;1.60;;
70981;SDS011;58640;51.320;9.456;2023-07-20T09:54:31;2.35;;;1.70;;
70981;SDS011;58640;51.320;9.456;2023-07-20T09:56:57;2.03;;;1.85;;
70981;SDS011;58640;51.320;9.456;2023-07-20T09:59:23;1.85;;;1.20;;
70981;SDS011;58640;51.320;9.456;2023-07-20T10:01:49;1.63;;;1.35;;
70981;SDS011;58640;51.320;9.456;2023-07-20T10:04:18;1.77;;;1.20;;
70981;SDS011;58640;51.320;9.456;2023-07-20T10:06:46;1.40;;;1.10;;
70981;SDS011;58640;51.320;9.456;2023-07-20T10:09:14;0.80;;;0.80;;
70981;SDS011;58640;51.320;9.456;2023-07-20T10:11:43;0.77;;;0.70;;
70981;SDS011;58640;51.320;9.456;2023-07-20T10:14:18;0.60;;;0.57;;
70981;SDS011;58640;51.320;9.456;2023-07-20T10:16:51;0.52;;;0.45;;
70981;SDS011;58640;51.320;9.456;2023-07-20T10:19:27;1.00;;;0.60;;
70981;SDS011;58640;51.320;9.456;2023-07-20T10:22:00;1.67;;;0.70;;
70981;SDS011;58640;51.320;9.456;2023-07-20T10:24:31;3.80;;;0.82;;
70981;SDS011;58640;51.320;9.456;2023-07-20T10:26:57;0.65;;;0.50;;
70981;SDS011;58640;51.320;9.456;2023-07-20T10:29:23;1.02;;;0.52;;
70981;SDS011;58640;51.320;9.456;2023-07-20T10:31:50;0.75;;;0.50;;
70981;SDS011;58640;51.320;9.456;2023-07-20T10:34:16;0.75;;;0.50;;
70981;SDS011;58640;51.320;9.456;2023-07-20T10:36:45;0.30;;;0.30;;
70981;SDS011;58640;51.320;9.456;2023-07-20T10:39:24;0.85;;;0.50;;
70981;SDS011;58640;51.320;9.456;2023-07-20T10:41:59;0.95;;;0.43;;
70981;SDS011;58640;51.320;9.456;2023-07-20T10:44:26;0.32;;;0.32;;
70981;SDS011;58640;51.320;9.456;2023-07-20T10:46:51;2.88;;;0.40;;
70981;SDS011;58640;51.320;9.456;2023-07-20T10:49:24;0.82;;;0.30;;
70981;SDS011;58640;51.320;9.456;2023-07-20T10:51:56;0.52;;;0.40;;
70981;SDS011;58640;51.320;9.456;2023-07-20T10:56:50;2.65;;;0.50;;
70981;SDS011;58640;51.320;9.456;2023-07-20T11:01:57;0.20;;;0.20;;
70981;SDS011;58640;51.320;9.456;2023-07-20T11:04:48;1.80;;;0.20;;
70981;SDS011;58640;51.320;9.456;2023-07-20T11:07:17;0.20;;;0.20;;
70981;SDS011;58640;51.320;9.456;2023-07-20T11:10:14;0.57;;;0.25;;
70981;SDS011;58640;51.320;9.456;2023-07-20T11:12:40;0.25;;;0.20;;
70981;SDS011;58640;51.320;9.456;2023-07-20T11:15:06;0.20;;;0.20;;
70981;SDS011;58640;51.320;9.456;2023-07-20T11:17:31;0.30;;;0.20;;
70981;SDS011;58640;51.320;9.456;2023-07-20T11:19:58;0.45;;;0.30;;
70981;SDS011;58640;51.320;9.456;2023-07-20T11:22:28;0.57;;;0.50;;
70981;SDS011;58640;51.320;9.456;2023-07-20T11:24:56;1.23;;;0.30;;
70981;SDS011;58640;51.320;9.456;2023-07-20T11:27:22;0.20;;;0.20;;
70981;SDS011;58640;51.320;9.456;2023-07-20T11:29:48;0.20;;;0.20;;
70981;SDS011;58640;51.320;9.456;2023-07-20T11:32:19;2.17;;;0.17;;
70981;SDS011;58640;51.320;9.456;2023-07-20T11:34:47;2.13;;;0.40;;
70981;SDS011;58640;51.320;9.456;2023-07-20T11:37:12;4.32;;;0.30;;
70981;SDS011;58640;51.320;9.456;2023-07-20T11:39:38;0.98;;;0.30;;
70981;SDS011;58640;51.320;9.456;2023-07-20T11:42:04;0.20;;;0.20;;
70981;SDS011;58640;51.320;9.456;2023-07-20T11:44:30;0.55;;;0.20;;
70981;SDS011;58640;51.320;9.456;2023-07-20T11:47:05;0.20;;;0.20;;
70981;SDS011;58640;51.320;9.456;2023-07-20T11:49:40;0.20;;;0.20;;
70981;SDS011;58640;51.320;9.456;2023-07-20T11:52:07;0.68;;;0.25;;
70981;SDS011;58640;51.320;9.456;2023-07-20T11:54:37;3.40;;;0.40;;
70981;SDS011;58640;51.320;9.456;2023-07-20T11:57:04;0.40;;;0.30;;
70981;SDS011;58640;51.320;9.456;2023-07-20T11:59:32;0.28;;;0.28;;
70981;SDS011;58640;51.320;9.456;2023-07-20T12:02:00;0.45;;;0.20;;
70981;SDS011;58640;51.320;9.456;2023-07-20T12:04:27;2.20;;;0.40;;
70981;SDS011;58640;51.320;9.456;2023-07-20T12:06:53;0.40;;;0.30;;
70981;SDS011;58640;51.320;9.456;2023-07-20T12:09:20;0.43;;;0.40;;
70981;SDS011;58640;51.320;9.456;2023-07-20T12:11:45;0.32;;;0.30;;
70981;SDS011;58640;51.320;9.456;2023-07-20T12:14:14;1.48;;;0.30;;
70981;SDS011;58640;51.320;9.456;2023-07-20T12:16:40;1.02;;;0.30;;
70981;SDS011;58640;51.320;9.456;2023-07-20T12:19:12;0.30;;;0.30;;
70981;SDS011;58640;51.320;9.456;2023-07-20T12:21:38;0.20;;;0.20;;
70981;SDS011;58640;51.320;9.456;2023-07-20T12:24:08;1.10;;;0.28;;
70981;SDS011;58640;51.320;9.456;2023-07-20T12:26:35;0.20;;;0.20;;
70981;SDS011;58640;51.320;9.456;2023-07-20T12:29:00;0.65;;;0.28;;
70981;SDS011;58640;51.320;9.456;2023-07-20T12:31:26;0.80;;;0.30;;
70981;SDS011;58640;51.320;9.456;2023-07-20T12:33:54;0.95;;;0.20;;
70981;SDS011;58640;51.320;9.456;2023-07-20T12:36:21;0.65;;;0.32;;
70981;SDS011;58640;51.320;9.456;2023-07-20T12:38:47;0.22;;;0.22;;
70981;SDS011;58640;51.320;9.456;2023-07-20T12:41:12;0.35;;;0.35;;
70981;SDS011;58640;51.320;9.456;2023-07-20T12:43:39;0.40;;;0.40;;
70981;SDS011;58640;51.320;9.456;2023-07-20T12:46:05;3.20;;;0.30;;
70981;SDS011;58640;51.320;9.456;2023-07-20T12:48:31;0.30;;;0.20;;
70981;SDS011;58640;51.320;9.456;2023-07-20T12:50:56;0.38;;;0.17;;
70981;SDS011;58640;51.320;9.456;2023-07-20T12:53:22;2.85;;;0.32;;
70981;SDS011;58640;51.320;9.456;2023-07-20T12:55:47;0.30;;;0.30;;
70981;SDS011;58640;51.320;9.456;2023-07-20T12:58:12;0.30;;;0.30;;
70981;SDS011;58640;51.320;9.456;2023-07-20T13:00:38;0.50;;;0.30;;
70981;SDS011;58640;51.320;9.456;2023-07-20T13:03:04;0.30;;;0.20;;
70981;SDS011;58640;51.320;9.456;2023-07-20T13:05:32;1.35;;;0.30;;
70981;SDS011;58640;51.320;9.456;2023-07-20T13:07:58;0.20;;;0.20;;
70981;SDS011;58640;51.320;9.456;2023-07-20T13:10:24;0.30;;;0.30;;
70981;SDS011;58640;51.320;9.456;2023-07-20T13:12:49;0.35;;;0.35;;
70981;SDS011;58640;51.320;9.456;2023-07-20T13:15:15;0.20;;;0.20;;
70981;SDS011;58640;51.320;9.456;2023-07-20T13:17:41;0.25;;;0.25;;
70981;SDS011;58640;51.320;9.456;2023-07-20T13:20:07;0.32;;;0.30;;
70981;SDS011;58640;51.320;9.456;2023-07-20T13:22:35;1.33;;;0.32;;
70981;SDS011;58640;51.320;9.456;2023-07-20T13:25:01;1.67;;;0.20;;
70981;SDS011;58640;51.320;9.456;2023-07-20T13:27:26;0.32;;;0.30;;
70981;SDS011;58640;51.320;9.456;2023-07-20T13:29:52;0.57;;;0.40;;
70981;SDS011;58640;51.320;9.456;2023-07-20T13:32:17;0.22;;;0.22;;
70981;SDS011;58640;51.320;9.456;2023-07-20T13:34:45;0.50;;;0.22;;
70981;SDS011;58640;51.320;9.456;2023-07-20T13:37:11;0.52;;;0.40;;
70981;SDS011;58640;51.320;9.456;2023-07-20T13:39:37;0.20;;;0.20;;
70981;SDS011;58640;51.320;9.456;2023-07-20T13:42:03;0.35;;;0.20;;
70981;SDS011;58640;51.320;9.456;2023-07-20T13:44:33;0.30;;;0.30;;
70981;SDS011;58640;51.320;9.456;2023-07-20T13:46:58;8.00;;;0.32;;
70981;SDS011;58640;51.320;9.456;2023-07-20T13:49:24;0.32;;;0.30;;
70981;SDS011;58640;51.320;9.456;2023-07-20T13:51:49;0.85;;;0.73;;
70981;SDS011;58640;51.320;9.456;2023-07-20T13:54:15;1.80;;;0.43;;
70981;SDS011;58640;51.320;9.456;2023-07-20T13:56:40;0.30;;;0.30;;
70981;SDS011;58640;51.320;9.456;2023-07-20T13:59:05;5.47;;;0.30;;
70981;SDS011;58640;51.320;9.456;2023-07-20T14:01:31;0.40;;;0.40;;
70981;SDS011;58640;51.320;9.456;2023-07-20T14:03:59;0.35;;;0.20;;
70981;SDS011;58640;51.320;9.456;2023-07-20T14:06:25;0.82;;;0.30;;
70981;SDS011;58640;51.320;9.456;2023-07-20T14:08:50;0.30;;;0.20;;
70981;SDS011;58640;51.320;9.456;2023-07-20T14:11:18;1.40;;;0.30;;
70981;SDS011;58640;51.320;9.456;2023-07-20T14:13:43;0.30;;;0.30;;
70981;SDS011;58640;51.320;9.456;2023-07-20T14:16:09;0.30;;;0.30;;
70981;SDS011;58640;51.320;9.456;2023-07-20T14:18:34;6.90;;;4.45;;
70981;SDS011;58640;51.320;9.456;2023-07-20T14:21:00;0.98;;;0.63;;
70981;SDS011;58640;51.320;9.456;2023-07-20T14:23:28;0.68;;;0.68;;
70981;SDS011;58640;51.320;9.456;2023-07-20T14:25:53;0.73;;;0.68;;
70981;SDS011;58640;51.320;9.456;2023-07-20T14:28:19;0.77;;;0.32;;
70981;SDS011;58640;51.320;9.456;2023-07-20T14:30:45;3.13;;;1.55;;
70981;SDS011;58640;51.320;9.456;2023-07-20T14:33:10;0.68;;;0.30;;
70981;SDS011;58640;51.320;9.456;2023-07-20T14:35:36;2.47;;;0.30;;
70981;SDS011;58640;51.320;9.456;2023-07-20T14:38:01;0.50;;;0.25;;
70981;SDS011;58640;51.320;9.456;2023-07-20T14:40:26;0.88;;;0.28;;
70981;SDS011;58640;51.320;9.456;2023-07-20T14:42:52;1.05;;;0.50;;
70981;SDS011;58640;51.320;9.456;2023-07-20T14:45:17;0.40;;;0.40;;
70981;SDS011;58640;51.320;9.456;2023-07-20T14:47:43;0.77;;;0.70;;
70981;SDS011;58640;51.320;9.456;2023-07-20T14:50:10;0.65;;;0.50;;
70981;SDS011;58640;51.320;9.456;2023-07-20T14:52:35;0.40;;;0.40;;
70981;SDS011;58640;51.320;9.456;2023-07-20T14:55:01;0.35;;;0.28;;
70981;SDS011;58640;51.320;9.456;2023-07-20T14:57:26;0.25;;;0.20;;
70981;SDS011;58640;51.320;9.456;2023-07-20T14:59:52;0.25;;;0.25;;
70981;SDS011;58640;51.320;9.456;2023-07-20T15:02:17;0.30;;;0.30;;